sensor_id;sensor_type;location;lat;lon;timestamp;P1;durP1;ratioP1;P2;durP2;ratioP2
64375;SDS011;50700;55.416;12.952;2022-07-22T00:01:41;9.30;;;3.67;;
64375;SDS011;50700;55.416;12.952;2022-07-22T00:04:07;7.40;;;2.92;;
64375;SDS011;50700;55.416;12.952;2022-07-22T00:06:33;8.57;;;3.15;;
64375;SDS011;50700;55.416;12.952;2022-07-22T00:08:59;11.38;;;4.03;;
64375;SDS011;50700;55.416;12.952;2022-07-22T00:11:26;7.88;;;3.20;;
64375;SDS011;50700;55.416;12.952;2022-07-22T00:13:52;5.68;;;2.85;;
64375;SDS011;50700;55.416;12.952;2022-07-22T00:16:18;6.05;;;2.92;;
64375;SDS011;50700;55.416;12.952;2022-07-22T00:18:44;7.95;;;4.05;;
64375;SDS011;50700;55.416;12.952;2022-07-22T00:21:10;8.27;;;4.00;;
64375;SDS011;50700;55.416;12.952;2022-07-22T00:23:37;8.35;;;4.22;;
64375;SDS011;50700;55.416;12.952;2022-07-22T00:26:03;8.95;;;3.55;;
64375;SDS011;50700;55.416;12.952;2022-07-22T00:28:29;11.00;;;3.80;;
64375;SDS011;50700;55.416;12.952;2022-07-22T00:30:56;11.18;;;3.92;;
64375;SDS011;50700;55.416;12.952;2022-07-22T00:33:22;8.55;;;3.88;;
64375;SDS011;50700;55.416;12.952;2022-07-22T00:35:48;8.15;;;3.58;;
64375;SDS011;50700;55.416;12.952;2022-07-22T00:38:14;9.32;;;4.63;;
64375;SDS011;50700;55.416;12.952;2022-07-22T00:40:40;9.88;;;4.30;;
64375;SDS011;50700;55.416;12.952;2022-07-22T00:43:07;10.50;;;4.40;;
64375;SDS011;50700;55.416;12.952;2022-07-22T00:45:33;10.20;;;3.97;;
64375;SDS011;50700;55.416;12.952;2022-07-22T00:47:59;8.68;;;4.03;;
64375;SDS011;50700;55.416;12.952;2022-07-22T00:50:25;9.55;;;3.63;;
64375;SDS011;50700;55.416;12.952;2022-07-22T00:52:52;9.65;;;3.80;;
64375;SDS011;50700;55.416;12.952;2022-07-22T00:55:18;9.00;;;3.78;;
64375;SDS011;50700;55.416;12.952;2022-07-22T00:57:45;10.65;;;3.80;;
64375;SDS011;50700;55.416;12.952;2022-07-22T01:00:13;9.93;;;3.80;;
64375;SDS011;50700;55.416;12.952;2022-07-22T01:02:40;10.02;;;3.80;;
64375;SDS011;50700;55.416;12.952;2022-07-22T01:05:06;10.18;;;3.45;;
64375;SDS011;50700;55.416;12.952;2022-07-22T01:07:33;10.27;;;3.28;;
64375;SDS011;50700;55.416;12.952;2022-07-22T01:10:00;8.25;;;3.70;;
64375;SDS011;50700;55.416;12.952;2022-07-22T01:12:26;9.70;;;3.38;;
64375;SDS011;50700;55.416;12.952;2022-07-22T01:14:52;12.13;;;3.75;;
64375;SDS011;50700;55.416;12.952;2022-07-22T01:17:18;9.20;;;3.35;;
64375;SDS011;50700;55.416;12.952;2022-07-22T01:19:44;7.63;;;3.60;;
64375;SDS011;50700;55.416;12.952;2022-07-22T01:22:11;7.22;;;3.50;;
64375;SDS011;50700;55.416;12.952;2022-07-22T01:24:37;9.63;;;3.05;;
64375;SDS011;50700;55.416;12.952;2022-07-22T01:27:03;8.10;;;3.47;;
64375;SDS011;50700;55.416;12.952;2022-07-22T01:29:29;9.30;;;4.28;;
64375;SDS011;50700;55.416;12.952;2022-07-22T01:31:55;8.20;;;3.25;;
64375;SDS011;50700;55.416;12.952;2022-07-22T01:34:22;9.77;;;3.80;;
64375;SDS011;50700;55.416;12.952;2022-07-22T01:36:48;12.07;;;4.00;;
64375;SDS011;50700;55.416;12.952;2022-07-22T01:39:14;11.88;;;4.30;;
64375;SDS011;50700;55.416;12.952;2022-07-22T01:41:41;6.70;;;3.70;;
64375;SDS011;50700;55.416;12.952;2022-07-22T01:44:07;7.82;;;4.05;;
64375;SDS011;50700;55.416;12.952;2022-07-22T01:46:33;9.30;;;3.65;;
64375;SDS011;50700;55.416;12.952;2022-07-22T01:48:59;9.45;;;3.25;;
64375;SDS011;50700;55.416;12.952;2022-07-22T01:51:26;8.95;;;3.50;;
64375;SDS011;50700;55.416;12.952;2022-07-22T01:53:52;11.13;;;3.60;;
64375;SDS011;50700;55.416;12.952;2022-07-22T01:56:18;9.60;;;3.88;;
64375;SDS011;50700;55.416;12.952;2022-07-22T01:58:44;10.98;;;4.10;;
64375;SDS011;50700;55.416;12.952;2022-07-22T02:01:10;9.63;;;3.90;;
64375;SDS011;50700;55.416;12.952;2022-07-22T02:03:37;9.20;;;3.72;;
64375;SDS011;50700;55.416;12.952;2022-07-22T02:06:03;7.82;;;4.00;;
64375;SDS011;50700;55.416;12.952;2022-07-22T02:08:29;8.00;;;3.30;;
64375;SDS011;50700;55.416;12.952;2022-07-22T02:10:56;11.65;;;4.57;;
64375;SDS011;50700;55.416;12.952;2022-07-22T02:13:22;11.27;;;4.68;;
64375;SDS011;50700;55.416;12.952;2022-07-22T02:15:48;13.45;;;4.43;;
64375;SDS011;50700;55.416;12.952;2022-07-22T02:18:16;14.48;;;4.78;;
64375;SDS011;50700;55.416;12.952;2022-07-22T02:20:43;11.27;;;4.25;;
64375;SDS011;50700;55.416;12.952;2022-07-22T02:23:10;12.93;;;4.10;;
64375;SDS011;50700;55.416;12.952;2022-07-22T02:25:37;12.50;;;3.72;;
64375;SDS011;50700;55.416;12.952;2022-07-22T02:28:03;11.90;;;4.75;;
64375;SDS011;50700;55.416;12.952;2022-07-22T02:30:29;12.68;;;4.47;;
64375;SDS011;50700;55.416;12.952;2022-07-22T02:32:56;10.68;;;4.50;;
64375;SDS011;50700;55.416;12.952;2022-07-22T02:35:22;13.32;;;4.75;;
64375;SDS011;50700;55.416;12.952;2022-07-22T02:37:48;11.55;;;4.95;;
64375;SDS011;50700;55.416;12.952;2022-07-22T02:40:15;9.20;;;4.57;;
64375;SDS011;50700;55.416;12.952;2022-07-22T02:42:41;12.00;;;4.72;;
64375;SDS011;50700;55.416;12.952;2022-07-22T02:45:08;16.50;;;4.57;;
64375;SDS011;50700;55.416;12.952;2022-07-22T02:47:34;13.48;;;5.78;;
64375;SDS011;50700;55.416;12.952;2022-07-22T02:50:00;15.25;;;5.78;;
64375;SDS011;50700;55.416;12.952;2022-07-22T02:52:27;9.32;;;5.00;;
64375;SDS011;50700;55.416;12.952;2022-07-22T02:54:53;12.23;;;5.32;;
64375;SDS011;50700;55.416;12.952;2022-07-22T02:57:19;11.70;;;5.05;;
64375;SDS011;50700;55.416;12.952;2022-07-22T02:59:45;14.20;;;5.60;;
64375;SDS011;50700;55.416;12.952;2022-07-22T03:02:11;17.77;;;6.15;;
64375;SDS011;50700;55.416;12.952;2022-07-22T03:04:38;10.80;;;4.43;;
64375;SDS011;50700;55.416;12.952;2022-07-22T03:07:04;10.10;;;5.18;;
64375;SDS011;50700;55.416;12.952;2022-07-22T03:09:30;10.45;;;5.15;;
64375;SDS011;50700;55.416;12.952;2022-07-22T03:11:57;10.57;;;5.03;;
64375;SDS011;50700;55.416;12.952;2022-07-22T03:14:23;10.75;;;5.57;;
64375;SDS011;50700;55.416;12.952;2022-07-22T03:16:49;14.10;;;5.72;;
64375;SDS011;50700;55.416;12.952;2022-07-22T03:19:15;14.98;;;6.05;;
64375;SDS011;50700;55.416;12.952;2022-07-22T03:21:41;13.65;;;5.25;;
64375;SDS011;50700;55.416;12.952;2022-07-22T03:24:07;10.10;;;5.45;;
64375;SDS011;50700;55.416;12.952;2022-07-22T03:26:34;10.07;;;5.32;;
64375;SDS011;50700;55.416;12.952;2022-07-22T03:29:00;13.38;;;6.07;;
64375;SDS011;50700;55.416;12.952;2022-07-22T03:31:26;11.18;;;4.95;;
64375;SDS011;50700;55.416;12.952;2022-07-22T03:33:52;18.70;;;5.57;;
64375;SDS011;50700;55.416;12.952;2022-07-22T03:36:19;16.67;;;5.28;;
64375;SDS011;50700;55.416;12.952;2022-07-22T03:38:45;10.00;;;4.35;;
64375;SDS011;50700;55.416;12.952;2022-07-22T03:41:11;11.70;;;4.78;;
64375;SDS011;50700;55.416;12.952;2022-07-22T03:43:37;10.88;;;4.85;;
64375;SDS011;50700;55.416;12.952;2022-07-22T03:46:03;9.43;;;4.70;;
64375;SDS011;50700;55.416;12.952;2022-07-22T03:48:30;13.85;;;5.45;;
64375;SDS011;50700;55.416;12.952;2022-07-22T03:50:56;15.88;;;5.00;;
64375;SDS011;50700;55.416;12.952;2022-07-22T03:53:22;13.25;;;4.45;;
64375;SDS011;50700;55.416;12.952;2022-07-22T03:55:48;15.50;;;4.30;;
64375;SDS011;50700;55.416;12.952;2022-07-22T03:58:16;11.00;;;3.85;;
64375;SDS011;50700;55.416;12.952;2022-07-22T04:00:43;15.05;;;4.40;;
64375;SDS011;50700;55.416;12.952;2022-07-22T04:03:09;12.43;;;4.18;;
64375;SDS011;50700;55.416;12.952;2022-07-22T04:05:35;13.63;;;3.65;;
64375;SDS011;50700;55.416;12.952;2022-07-22T04:08:02;12.05;;;3.50;;
64375;SDS011;50700;55.416;12.952;2022-07-22T04:10:28;12.93;;;3.97;;
64375;SDS011;50700;55.416;12.952;2022-07-22T04:12:54;9.40;;;4.15;;
64375;SDS011;50700;55.416;12.952;2022-07-22T04:15:20;11.00;;;3.67;;
64375;SDS011;50700;55.416;12.952;2022-07-22T04:17:47;13.10;;;3.90;;
64375;SDS011;50700;55.416;12.952;2022-07-22T04:20:13;16.25;;;3.63;;
64375;SDS011;50700;55.416;12.952;2022-07-22T04:22:39;12.50;;;3.38;;
64375;SDS011;50700;55.416;12.952;2022-07-22T04:25:06;11.15;;;3.63;;
64375;SDS011;50700;55.416;12.952;2022-07-22T04:27:32;14.93;;;3.85;;
64375;SDS011;50700;55.416;12.952;2022-07-22T04:29:58;11.63;;;3.00;;
64375;SDS011;50700;55.416;12.952;2022-07-22T04:32:24;8.65;;;3.45;;
64375;SDS011;50700;55.416;12.952;2022-07-22T04:34:50;13.23;;;3.53;;
64375;SDS011;50700;55.416;12.952;2022-07-22T04:37:17;15.88;;;4.07;;
64375;SDS011;50700;55.416;12.952;2022-07-22T04:39:43;12.23;;;3.53;;
64375;SDS011;50700;55.416;12.952;2022-07-22T04:42:09;8.43;;;3.30;;
64375;SDS011;50700;55.416;12.952;2022-07-22T04:44:35;11.73;;;4.38;;
64375;SDS011;50700;55.416;12.952;2022-07-22T04:47:02;9.95;;;3.38;;
64375;SDS011;50700;55.416;12.952;2022-07-22T04:49:28;8.00;;;3.67;;
64375;SDS011;50700;55.416;12.952;2022-07-22T04:51:54;13.90;;;4.07;;
64375;SDS011;50700;55.416;12.952;2022-07-22T04:54:20;11.27;;;3.65;;
64375;SDS011;50700;55.416;12.952;2022-07-22T04:56:47;13.18;;;3.58;;
64375;SDS011;50700;55.416;12.952;2022-07-22T04:59:13;15.00;;;4.03;;
64375;SDS011;50700;55.416;12.952;2022-07-22T05:01:39;16.73;;;3.95;;
64375;SDS011;50700;55.416;12.952;2022-07-22T05:04:05;14.35;;;3.25;;
64375;SDS011;50700;55.416;12.952;2022-07-22T05:06:31;11.10;;;3.45;;
64375;SDS011;50700;55.416;12.952;2022-07-22T05:08:58;14.77;;;3.25;;
64375;SDS011;50700;55.416;12.952;2022-07-22T05:11:24;12.02;;;3.60;;
64375;SDS011;50700;55.416;12.952;2022-07-22T05:13:50;18.35;;;5.90;;
64375;SDS011;50700;55.416;12.952;2022-07-22T05:16:16;11.50;;;3.22;;
64375;SDS011;50700;55.416;12.952;2022-07-22T05:18:42;12.70;;;3.10;;
64375;SDS011;50700;55.416;12.952;2022-07-22T05:21:08;10.05;;;3.60;;
64375;SDS011;50700;55.416;12.952;2022-07-22T05:23:35;16.77;;;3.38;;
64375;SDS011;50700;55.416;12.952;2022-07-22T05:26:01;8.85;;;2.95;;
64375;SDS011;50700;55.416;12.952;2022-07-22T05:28:27;17.23;;;4.15;;
64375;SDS011;50700;55.416;12.952;2022-07-22T05:30:54;9.65;;;3.10;;
64375;SDS011;50700;55.416;12.952;2022-07-22T05:33:20;10.70;;;3.33;;
64375;SDS011;50700;55.416;12.952;2022-07-22T05:35:46;12.68;;;3.38;;
64375;SDS011;50700;55.416;12.952;2022-07-22T05:38:12;11.32;;;2.95;;
64375;SDS011;50700;55.416;12.952;2022-07-22T05:40:38;13.45;;;3.70;;
64375;SDS011;50700;55.416;12.952;2022-07-22T05:43:05;13.50;;;3.40;;
64375;SDS011;50700;55.416;12.952;2022-07-22T05:45:31;13.40;;;4.47;;
64375;SDS011;50700;55.416;12.952;2022-07-22T05:47:57;13.43;;;3.67;;
64375;SDS011;50700;55.416;12.952;2022-07-22T05:50:23;14.73;;;3.75;;
64375;SDS011;50700;55.416;12.952;2022-07-22T05:52:50;12.18;;;4.25;;
64375;SDS011;50700;55.416;12.952;2022-07-22T05:55:16;13.50;;;3.92;;
64375;SDS011;50700;55.416;12.952;2022-07-22T05:57:42;12.90;;;3.25;;
64375;SDS011;50700;55.416;12.952;2022-07-22T06:00:08;21.23;;;3.85;;
64375;SDS011;50700;55.416;12.952;2022-07-22T06:02:35;15.60;;;4.38;;
64375;SDS011;50700;55.416;12.952;2022-07-22T06:05:01;16.08;;;4.60;;
64375;SDS011;50700;55.416;12.952;2022-07-22T06:07:27;16.35;;;3.30;;
64375;SDS011;50700;55.416;12.952;2022-07-22T06:09:53;12.48;;;3.70;;
64375;SDS011;50700;55.416;12.952;2022-07-22T06:12:19;13.73;;;4.28;;
64375;SDS011;50700;55.416;12.952;2022-07-22T06:14:46;15.63;;;3.58;;
64375;SDS011;50700;55.416;12.952;2022-07-22T06:17:12;11.73;;;3.78;;
64375;SDS011;50700;55.416;12.952;2022-07-22T06:19:39;10.00;;;3.15;;
64375;SDS011;50700;55.416;12.952;2022-07-22T06:22:05;10.50;;;3.13;;
64375;SDS011;50700;55.416;12.952;2022-07-22T06:24:31;29.63;;;5.28;;
64375;SDS011;50700;55.416;12.952;2022-07-22T06:26:57;14.15;;;3.67;;
64375;SDS011;50700;55.416;12.952;2022-07-22T06:29:23;11.43;;;3.58;;
64375;SDS011;50700;55.416;12.952;2022-07-22T06:31:50;9.30;;;3.28;;
64375;SDS011;50700;55.416;12.952;2022-07-22T06:34:16;14.68;;;3.67;;
64375;SDS011;50700;55.416;12.952;2022-07-22T06:36:42;9.48;;;3.47;;
64375;SDS011;50700;55.416;12.952;2022-07-22T06:39:08;8.85;;;3.45;;
64375;SDS011;50700;55.416;12.952;2022-07-22T06:41:34;11.52;;;3.63;;
64375;SDS011;50700;55.416;12.952;2022-07-22T06:44:00;8.50;;;3.28;;
64375;SDS011;50700;55.416;12.952;2022-07-22T06:46:27;12.15;;;3.63;;
64375;SDS011;50700;55.416;12.952;2022-07-22T06:48:53;12.63;;;3.05;;
64375;SDS011;50700;55.416;12.952;2022-07-22T06:51:19;15.18;;;3.40;;
64375;SDS011;50700;55.416;12.952;2022-07-22T06:53:45;16.27;;;3.67;;
64375;SDS011;50700;55.416;12.952;2022-07-22T06:56:12;6.68;;;3.03;;
64375;SDS011;50700;55.416;12.952;2022-07-22T06:58:38;12.80;;;3.53;;
64375;SDS011;50700;55.416;12.952;2022-07-22T07:01:04;13.63;;;4.43;;
64375;SDS011;50700;55.416;12.952;2022-07-22T07:03:30;14.00;;;3.38;;
64375;SDS011;50700;55.416;12.952;2022-07-22T07:05:56;15.60;;;3.47;;
64375;SDS011;50700;55.416;12.952;2022-07-22T07:08:22;7.75;;;3.03;;
64375;SDS011;50700;55.416;12.952;2022-07-22T07:10:48;12.10;;;3.38;;
64375;SDS011;50700;55.416;12.952;2022-07-22T07:13:15;11.10;;;4.45;;
64375;SDS011;50700;55.416;12.952;2022-07-22T07:15:41;9.75;;;2.97;;
64375;SDS011;50700;55.416;12.952;2022-07-22T07:18:07;11.73;;;3.70;;
64375;SDS011;50700;55.416;12.952;2022-07-22T07:20:33;11.80;;;3.08;;
64375;SDS011;50700;55.416;12.952;2022-07-22T07:23:00;14.43;;;3.97;;
64375;SDS011;50700;55.416;12.952;2022-07-22T07:25:27;10.20;;;2.85;;
64375;SDS011;50700;55.416;12.952;2022-07-22T07:27:54;11.15;;;3.35;;
64375;SDS011;50700;55.416;12.952;2022-07-22T07:30:20;11.98;;;3.47;;
64375;SDS011;50700;55.416;12.952;2022-07-22T07:32:47;10.73;;;3.65;;
64375;SDS011;50700;55.416;12.952;2022-07-22T07:35:13;13.80;;;3.65;;
64375;SDS011;50700;55.416;12.952;2022-07-22T07:37:39;8.32;;;4.07;;
64375;SDS011;50700;55.416;12.952;2022-07-22T07:40:05;12.32;;;3.25;;
64375;SDS011;50700;55.416;12.952;2022-07-22T07:42:32;8.73;;;3.28;;
64375;SDS011;50700;55.416;12.952;2022-07-22T07:44:58;12.07;;;3.38;;
64375;SDS011;50700;55.416;12.952;2022-07-22T07:47:24;11.77;;;3.42;;
64375;SDS011;50700;55.416;12.952;2022-07-22T07:49:50;9.93;;;3.38;;
64375;SDS011;50700;55.416;12.952;2022-07-22T07:52:16;9.23;;;3.05;;
64375;SDS011;50700;55.416;12.952;2022-07-22T07:54:42;11.52;;;3.38;;
64375;SDS011;50700;55.416;12.952;2022-07-22T07:57:09;10.45;;;3.28;;
64375;SDS011;50700;55.416;12.952;2022-07-22T07:59:36;5.97;;;3.10;;
64375;SDS011;50700;55.416;12.952;2022-07-22T08:02:02;12.65;;;3.58;;
64375;SDS011;50700;55.416;12.952;2022-07-22T08:04:29;8.38;;;3.08;;
64375;SDS011;50700;55.416;12.952;2022-07-22T08:06:55;11.02;;;3.25;;
64375;SDS011;50700;55.416;12.952;2022-07-22T08:09:22;8.90;;;3.08;;
64375;SDS011;50700;55.416;12.952;2022-07-22T08:11:48;12.20;;;3.05;;
64375;SDS011;50700;55.416;12.952;2022-07-22T08:14:14;9.25;;;2.95;;
64375;SDS011;50700;55.416;12.952;2022-07-22T08:16:40;10.43;;;3.40;;
64375;SDS011;50700;55.416;12.952;2022-07-22T08:19:06;10.75;;;3.00;;
64375;SDS011;50700;55.416;12.952;2022-07-22T08:21:33;6.47;;;2.67;;
64375;SDS011;50700;55.416;12.952;2022-07-22T08:23:59;9.82;;;3.53;;
64375;SDS011;50700;55.416;12.952;2022-07-22T08:26:25;11.85;;;2.78;;
64375;SDS011;50700;55.416;12.952;2022-07-22T08:28:51;8.95;;;2.60;;
64375;SDS011;50700;55.416;12.952;2022-07-22T08:31:18;10.35;;;2.70;;
64375;SDS011;50700;55.416;12.952;2022-07-22T08:33:44;9.27;;;2.45;;
64375;SDS011;50700;55.416;12.952;2022-07-22T08:36:11;5.45;;;2.78;;
64375;SDS011;50700;55.416;12.952;2022-07-22T08:38:37;6.22;;;2.40;;
64375;SDS011;50700;55.416;12.952;2022-07-22T08:41:04;7.20;;;2.28;;
64375;SDS011;50700;55.416;12.952;2022-07-22T08:43:31;5.30;;;1.92;;
64375;SDS011;50700;55.416;12.952;2022-07-22T08:45:59;6.80;;;2.25;;
64375;SDS011;50700;55.416;12.952;2022-07-22T08:48:25;5.32;;;1.88;;
64375;SDS011;50700;55.416;12.952;2022-07-22T08:50:51;6.18;;;2.05;;
64375;SDS011;50700;55.416;12.952;2022-07-22T08:53:17;6.47;;;2.42;;
64375;SDS011;50700;55.416;12.952;2022-07-22T08:55:44;2.42;;;1.63;;
64375;SDS011;50700;55.416;12.952;2022-07-22T08:58:10;7.45;;;2.20;;
64375;SDS011;50700;55.416;12.952;2022-07-22T09:00:37;6.90;;;2.28;;
64375;SDS011;50700;55.416;12.952;2022-07-22T09:03:16;7.50;;;2.30;;
64375;SDS011;50700;55.416;12.952;2022-07-22T09:05:42;7.78;;;2.75;;
64375;SDS011;50700;55.416;12.952;2022-07-22T09:08:09;6.78;;;2.40;;
64375;SDS011;50700;55.416;12.952;2022-07-22T09:10:35;8.77;;;3.00;;
64375;SDS011;50700;55.416;12.952;2022-07-22T09:13:03;4.32;;;2.28;;
64375;SDS011;50700;55.416;12.952;2022-07-22T09:15:33;7.25;;;2.55;;
64375;SDS011;50700;55.416;12.952;2022-07-22T09:18:04;10.63;;;2.63;;
64375;SDS011;50700;55.416;12.952;2022-07-22T09:20:31;10.50;;;2.72;;
64375;SDS011;50700;55.416;12.952;2022-07-22T09:22:57;8.35;;;3.00;;
64375;SDS011;50700;55.416;12.952;2022-07-22T09:25:31;11.18;;;3.38;;
64375;SDS011;50700;55.416;12.952;2022-07-22T09:30:34;7.00;;;3.85;;
64375;SDS011;50700;55.416;12.952;2022-07-22T09:33:00;5.78;;;2.50;;
64375;SDS011;50700;55.416;12.952;2022-07-22T09:35:27;5.03;;;2.15;;
64375;SDS011;50700;55.416;12.952;2022-07-22T09:37:54;6.63;;;2.03;;
64375;SDS011;50700;55.416;12.952;2022-07-22T09:40:22;6.50;;;2.40;;
64375;SDS011;50700;55.416;12.952;2022-07-22T09:42:50;7.07;;;2.50;;
64375;SDS011;50700;55.416;12.952;2022-07-22T09:45:17;5.55;;;2.30;;
64375;SDS011;50700;55.416;12.952;2022-07-22T09:47:44;6.90;;;2.65;;
64375;SDS011;50700;55.416;12.952;2022-07-22T09:50:14;7.60;;;2.17;;
64375;SDS011;50700;55.416;12.952;2022-07-22T09:52:41;5.72;;;2.40;;
64375;SDS011;50700;55.416;12.952;2022-07-22T09:55:07;9.60;;;2.60;;
64375;SDS011;50700;55.416;12.952;2022-07-22T09:57:34;7.40;;;2.30;;
64375;SDS011;50700;55.416;12.952;2022-07-22T10:00:00;9.30;;;2.45;;
64375;SDS011;50700;55.416;12.952;2022-07-22T10:02:29;6.45;;;2.55;;
64375;SDS011;50700;55.416;12.952;2022-07-22T10:04:57;10.23;;;2.85;;
64375;SDS011;50700;55.416;12.952;2022-07-22T10:07:24;4.25;;;2.20;;
64375;SDS011;50700;55.416;12.952;2022-07-22T10:09:52;6.68;;;2.20;;
64375;SDS011;50700;55.416;12.952;2022-07-22T10:12:19;8.73;;;2.53;;
64375;SDS011;50700;55.416;12.952;2022-07-22T10:14:46;8.57;;;2.53;;
64375;SDS011;50700;55.416;12.952;2022-07-22T10:17:13;6.00;;;2.38;;
64375;SDS011;50700;55.416;12.952;2022-07-22T10:19:40;7.65;;;2.42;;
64375;SDS011;50700;55.416;12.952;2022-07-22T10:25:09;7.65;;;2.33;;
64375;SDS011;50700;55.416;12.952;2022-07-22T10:27:48;6.65;;;1.90;;
64375;SDS011;50700;55.416;12.952;2022-07-22T10:30:22;5.30;;;2.10;;
64375;SDS011;50700;55.416;12.952;2022-07-22T10:33:10;8.02;;;2.50;;
64375;SDS011;50700;55.416;12.952;2022-07-22T10:35:37;6.90;;;2.28;;
64375;SDS011;50700;55.416;12.952;2022-07-22T10:38:05;5.10;;;1.98;;
64375;SDS011;50700;55.416;12.952;2022-07-22T10:40:45;5.57;;;1.75;;
64375;SDS011;50700;55.416;12.952;2022-07-22T10:43:11;11.73;;;2.40;;
64375;SDS011;50700;55.416;12.952;2022-07-22T10:45:51;5.45;;;1.73;;
64375;SDS011;50700;55.416;12.952;2022-07-22T10:48:18;6.45;;;1.80;;
64375;SDS011;50700;55.416;12.952;2022-07-22T10:50:49;5.70;;;2.13;;
64375;SDS011;50700;55.416;12.952;2022-07-22T10:53:22;10.70;;;3.20;;
64375;SDS011;50700;55.416;12.952;2022-07-22T10:56:05;5.25;;;2.38;;
64375;SDS011;50700;55.416;12.952;2022-07-22T11:01:00;5.40;;;1.95;;
64375;SDS011;50700;55.416;12.952;2022-07-22T11:03:30;5.63;;;2.13;;
64375;SDS011;50700;55.416;12.952;2022-07-22T11:05:57;6.00;;;1.67;;
64375;SDS011;50700;55.416;12.952;2022-07-22T11:08:39;7.00;;;1.80;;
64375;SDS011;50700;55.416;12.952;2022-07-22T11:11:06;8.32;;;2.28;;
64375;SDS011;50700;55.416;12.952;2022-07-22T11:13:36;8.85;;;2.22;;
64375;SDS011;50700;55.416;12.952;2022-07-22T11:16:16;9.98;;;2.20;;
64375;SDS011;50700;55.416;12.952;2022-07-22T11:18:52;5.65;;;2.00;;
64375;SDS011;50700;55.416;12.952;2022-07-22T11:21:19;7.63;;;2.15;;
64375;SDS011;50700;55.416;12.952;2022-07-22T11:23:47;12.82;;;2.50;;
64375;SDS011;50700;55.416;12.952;2022-07-22T11:26:14;7.05;;;2.20;;
64375;SDS011;50700;55.416;12.952;2022-07-22T11:28:44;10.65;;;2.70;;
64375;SDS011;50700;55.416;12.952;2022-07-22T11:31:15;7.60;;;1.98;;
64375;SDS011;50700;55.416;12.952;2022-07-22T11:33:41;7.57;;;2.17;;
64375;SDS011;50700;55.416;12.952;2022-07-22T11:36:08;8.77;;;2.20;;
64375;SDS011;50700;55.416;12.952;2022-07-22T11:38:45;7.18;;;2.25;;
64375;SDS011;50700;55.416;12.952;2022-07-22T11:41:12;12.23;;;4.00;;
64375;SDS011;50700;55.416;12.952;2022-07-22T11:43:42;7.70;;;2.25;;
64375;SDS011;50700;55.416;12.952;2022-07-22T11:46:09;7.88;;;2.38;;
64375;SDS011;50700;55.416;12.952;2022-07-22T11:48:35;5.85;;;2.63;;
64375;SDS011;50700;55.416;12.952;2022-07-22T11:51:02;10.48;;;2.47;;
64375;SDS011;50700;55.416;12.952;2022-07-22T11:53:29;7.35;;;2.47;;
64375;SDS011;50700;55.416;12.952;2022-07-22T11:55:58;7.63;;;2.30;;
64375;SDS011;50700;55.416;12.952;2022-07-22T12:01:04;13.70;;;2.55;;
64375;SDS011;50700;55.416;12.952;2022-07-22T12:03:31;9.43;;;1.98;;
64375;SDS011;50700;55.416;12.952;2022-07-22T12:05:58;14.23;;;3.22;;
64375;SDS011;50700;55.416;12.952;2022-07-22T12:08:26;9.13;;;2.20;;
64375;SDS011;50700;55.416;12.952;2022-07-22T12:10:52;6.25;;;2.17;;
64375;SDS011;50700;55.416;12.952;2022-07-22T12:13:18;6.18;;;1.92;;
64375;SDS011;50700;55.416;12.952;2022-07-22T12:15:45;10.85;;;2.45;;
64375;SDS011;50700;55.416;12.952;2022-07-22T12:18:18;11.25;;;2.70;;
64375;SDS011;50700;55.416;12.952;2022-07-22T12:20:46;8.68;;;2.08;;
64375;SDS011;50700;55.416;12.952;2022-07-22T12:23:13;8.02;;;2.17;;
64375;SDS011;50700;55.416;12.952;2022-07-22T12:28:20;9.63;;;2.10;;
64375;SDS011;50700;55.416;12.952;2022-07-22T12:30:48;4.47;;;1.75;;
64375;SDS011;50700;55.416;12.952;2022-07-22T12:33:15;8.95;;;1.98;;
64375;SDS011;50700;55.416;12.952;2022-07-22T12:35:42;7.20;;;2.00;;
64375;SDS011;50700;55.416;12.952;2022-07-22T12:38:09;6.72;;;2.30;;
64375;SDS011;50700;55.416;12.952;2022-07-22T12:40:36;6.88;;;2.10;;
64375;SDS011;50700;55.416;12.952;2022-07-22T12:43:03;7.85;;;2.28;;
64375;SDS011;50700;55.416;12.952;2022-07-22T12:45:30;7.45;;;2.25;;
64375;SDS011;50700;55.416;12.952;2022-07-22T12:48:04;9.02;;;2.53;;
64375;SDS011;50700;55.416;12.952;2022-07-22T12:50:53;6.32;;;1.90;;
64375;SDS011;50700;55.416;12.952;2022-07-22T12:53:23;6.35;;;2.00;;
64375;SDS011;50700;55.416;12.952;2022-07-22T12:55:54;11.00;;;2.40;;
64375;SDS011;50700;55.416;12.952;2022-07-22T12:58:21;9.27;;;2.60;;
64375;SDS011;50700;55.416;12.952;2022-07-22T13:00:48;8.02;;;2.00;;
64375;SDS011;50700;55.416;12.952;2022-07-22T13:03:15;11.73;;;2.05;;
64375;SDS011;50700;55.416;12.952;2022-07-22T13:05:44;7.97;;;2.20;;
64375;SDS011;50700;55.416;12.952;2022-07-22T13:08:10;10.60;;;2.00;;
64375;SDS011;50700;55.416;12.952;2022-07-22T13:10:36;6.63;;;1.92;;
64375;SDS011;50700;55.416;12.952;2022-07-22T13:13:02;10.55;;;1.80;;
64375;SDS011;50700;55.416;12.952;2022-07-22T13:15:28;7.55;;;1.92;;
64375;SDS011;50700;55.416;12.952;2022-07-22T13:17:55;8.02;;;2.40;;
64375;SDS011;50700;55.416;12.952;2022-07-22T13:20:21;6.43;;;2.00;;
64375;SDS011;50700;55.416;12.952;2022-07-22T13:22:47;5.43;;;1.92;;
64375;SDS011;50700;55.416;12.952;2022-07-22T13:25:13;7.50;;;1.80;;
64375;SDS011;50700;55.416;12.952;2022-07-22T13:27:40;8.95;;;2.42;;
64375;SDS011;50700;55.416;12.952;2022-07-22T13:30:06;4.75;;;1.90;;
64375;SDS011;50700;55.416;12.952;2022-07-22T13:32:32;6.50;;;2.03;;
64375;SDS011;50700;55.416;12.952;2022-07-22T13:34:59;6.80;;;1.73;;
64375;SDS011;50700;55.416;12.952;2022-07-22T13:37:25;7.20;;;1.85;;
64375;SDS011;50700;55.416;12.952;2022-07-22T13:39:51;4.03;;;1.50;;
64375;SDS011;50700;55.416;12.952;2022-07-22T13:42:17;6.10;;;1.90;;
64375;SDS011;50700;55.416;12.952;2022-07-22T13:44:47;4.68;;;1.92;;
64375;SDS011;50700;55.416;12.952;2022-07-22T13:47:14;6.72;;;2.25;;
64375;SDS011;50700;55.416;12.952;2022-07-22T13:49:40;11.73;;;2.13;;
64375;SDS011;50700;55.416;12.952;2022-07-22T13:54:01;5.30;;;1.80;;
64375;SDS011;50700;55.416;12.952;2022-07-22T13:56:27;7.07;;;1.98;;
64375;SDS011;50700;55.416;12.952;2022-07-22T13:58:53;9.93;;;1.90;;
64375;SDS011;50700;55.416;12.952;2022-07-22T14:01:19;7.97;;;2.17;;
64375;SDS011;50700;55.416;12.952;2022-07-22T14:03:45;7.82;;;2.00;;
64375;SDS011;50700;55.416;12.952;2022-07-22T14:06:11;5.43;;;1.95;;
64375;SDS011;50700;55.416;12.952;2022-07-22T14:08:37;7.10;;;2.10;;
64375;SDS011;50700;55.416;12.952;2022-07-22T14:11:04;8.77;;;2.28;;
64375;SDS011;50700;55.416;12.952;2022-07-22T14:13:30;4.47;;;2.00;;
64375;SDS011;50700;55.416;12.952;2022-07-22T14:15:56;7.97;;;2.13;;
64375;SDS011;50700;55.416;12.952;2022-07-22T14:18:42;5.65;;;2.13;;
64375;SDS011;50700;55.416;12.952;2022-07-22T14:21:08;5.63;;;1.83;;
64375;SDS011;50700;55.416;12.952;2022-07-22T14:23:34;9.57;;;2.10;;
64375;SDS011;50700;55.416;12.952;2022-07-22T14:26:00;6.22;;;2.17;;
64375;SDS011;50700;55.416;12.952;2022-07-22T14:28:27;11.90;;;2.53;;
64375;SDS011;50700;55.416;12.952;2022-07-22T14:30:53;4.55;;;2.05;;
64375;SDS011;50700;55.416;12.952;2022-07-22T14:33:19;8.48;;;2.28;;
64375;SDS011;50700;55.416;12.952;2022-07-22T14:35:45;6.82;;;2.03;;
64375;SDS011;50700;55.416;12.952;2022-07-22T14:38:12;7.53;;;2.03;;
64375;SDS011;50700;55.416;12.952;2022-07-22T14:40:38;7.20;;;2.33;;
64375;SDS011;50700;55.416;12.952;2022-07-22T14:43:04;8.73;;;2.00;;